Time;durP1;ratioP1;P1;durP2;ratioP2;P2;SDS_P1;SDS_P2;PMS_P1;PMS_P2;Temp;Humidity;BMP_temperature;BMP_pressure;BME280_temperature;BME280_humidity;BME280_pressure;Samples;Min_cycle;Max_cycle;Signal;HPM_P1;HPM_P2
2023/08/04 00:01:31;;;;;;;16.17;7.53;;;;;;;15.76;100.00;99988.09;4964443;28;20037;-76
2023/08/04 00:03:56;;;;;;;14.50;6.07;;;;;;;15.77;100.00;99978.94;4994753;28;20038;-75
2023/08/04 00:06:22;;;;;;;14.83;6.40;;;;;;;15.72;100.00;99984.16;4998727;28;20034;-76
2023/08/04 00:08:47;;;;;;;15.63;6.57;;;;;;;15.76;100.00;99998.84;4974677;28;20034;-74
2023/08/04 00:11:12;;;;;;;17.57;7.07;;;;;;;15.79;100.00;99998.41;4975913;28;20030;-75
2023/08/04 00:13:38;;;;;;;15.63;5.77;;;;;;;15.74;100.00;100006.31;4978630;28;20030;-75
2023/08/04 00:16:07;;;;;;;16.33;7.53;;;;;;;15.76;100.00;100005.03;4995913;28;20036;-75
2023/08/04 00:18:33;;;;;;;15.82;6.10;;;;;;;15.82;100.00;100009.56;4986783;28;20109;-75
2023/08/04 00:20:59;;;;;;;12.68;5.95;;;;;;;15.80;100.00;100016.19;4997286;28;20489;-75
2023/08/04 00:23:24;;;;;;;14.17;5.83;;;;;;;15.80;100.00;100010.81;4982626;28;20054;-75
2023/08/04 00:25:49;;;;;;;18.07;5.83;;;;;;;15.88;100.00;100017.84;4989665;28;20034;-75
2023/08/04 00:28:18;;;;;;;13.90;6.03;;;;;;;15.89;100.00;100024.84;4966830;28;20462;-74
2023/08/04 00:30:44;;;;;;;19.15;5.93;;;;;;;15.82;100.00;100011.44;4989930;28;20145;-75
2023/08/04 00:33:10;;;;;;;13.00;5.30;;;;;;;15.81;100.00;100001.72;4987673;28;20534;-76
2023/08/04 00:35:35;;;;;;;13.20;5.73;;;;;;;15.84;100.00;100017.41;4975976;28;20574;-78
2023/08/04 00:38:01;;;;;;;11.63;5.00;;;;;;;15.85;100.00;100020.94;4973818;28;20948;-78
2023/08/04 00:40:28;;;;;;;13.52;4.93;;;;;;;15.81;100.00;100018.69;4996323;28;20053;-75
2023/08/04 00:42:55;;;;;;;9.48;5.03;;;;;;;15.78;100.00;100020.97;4985533;28;20034;-77
2023/08/04 00:45:24;;;;;;;20.60;6.13;;;;;;;15.88;100.00;100029.41;4980199;28;20025;-77
2023/08/04 00:47:53;;;;;;;18.55;5.32;;;;;;;15.88;100.00;100034.81;4977241;28;20026;-76
2023/08/04 00:50:19;;;;;;;15.38;4.53;;;;;;;15.76;100.00;100028.44;4975327;28;20403;-75
2023/08/04 00:52:45;;;;;;;13.27;4.75;;;;;;;15.82;100.00;100041.84;4961788;28;20023;-75
2023/08/04 00:55:13;;;;;;;12.98;5.60;;;;;;;15.85;100.00;100037.09;4968291;28;20510;-77
2023/08/04 00:57:39;;;;;;;16.27;5.55;;;;;;;15.82;100.00;100035.66;4978011;28;20026;-76
2023/08/04 01:00:06;;;;;;;15.40;5.07;;;;;;;15.75;100.00;100030.28;4964912;28;20053;-76
2023/08/04 01:02:32;;;;;;;14.20;5.00;;;;;;;15.72;100.00;100041.50;4979951;28;20022;-75
2023/08/04 01:04:59;;;;;;;16.00;5.18;;;;;;;15.71;100.00;100045.22;4965493;28;20045;-75
2023/08/04 01:07:27;;;;;;;16.05;4.88;;;;;;;15.77;100.00;100047.06;4962969;28;20509;-75
2023/08/04 01:10:09;;;;;;;11.77;4.53;;;;;;;15.68;100.00;100052.84;4992075;28;20527;-76
2023/08/04 01:12:46;;;;;;;14.82;4.90;;;;;;;15.63;100.00;100054.31;4954211;28;20034;-76
2023/08/04 01:15:12;;;;;;;15.50;6.00;;;;;;;15.68;100.00;100061.75;4945512;28;20034;-76
2023/08/04 01:17:37;;;;;;;11.30;5.22;;;;;;;15.63;100.00;100058.88;4995965;28;20426;-75
2023/08/04 01:20:03;;;;;;;15.87;3.93;;;;;;;15.69;100.00;100068.81;4978114;28;20064;-75
2023/08/04 01:22:29;;;;;;;17.27;4.50;;;;;;;15.59;100.00;100053.09;4965804;28;20372;-76
2023/08/04 01:24:55;;;;;;;27.63;4.70;;;;;;;15.67;100.00;100070.06;4991658;28;20032;-75
2023/08/04 01:27:44;;;;;;;14.30;4.60;;;;;;;15.72;100.00;100079.16;4973027;28;20483;-78
2023/08/04 01:30:15;;;;;;;11.65;4.82;;;;;;;15.66;100.00;100079.16;4992310;28;20112;-75
2023/08/04 01:32:40;;;;;;;16.20;4.88;;;;;;;15.60;100.00;100092.41;4977470;28;20341;-76
2023/08/04 01:35:08;;;;;;;15.18;4.72;;;;;;;15.66;100.00;100098.00;4977264;28;20018;-77
2023/08/04 01:37:33;;;;;;;20.48;5.43;;;;;;;15.65;100.00;100088.28;4978171;28;20426;-77
2023/08/04 01:40:01;;;;;;;11.40;4.60;;;;;;;15.70;100.00;100096.53;4966825;28;20046;-75
2023/08/04 01:42:27;;;;;;;14.77;5.55;;;;;;;15.63;100.00;100099.25;4985261;28;20064;-75
2023/08/04 01:44:52;;;;;;;9.00;4.63;;;;;;;15.62;100.00;100098.41;4976840;28;20496;-75
2023/08/04 01:47:17;;;;;;;22.37;5.43;;;;;;;15.64;100.00;100095.53;4981535;28;20054;-75
2023/08/04 01:49:44;;;;;;;8.77;4.40;;;;;;;15.72;100.00;100099.88;4991215;28;20105;-75
2023/08/04 01:52:09;;;;;;;10.27;4.03;;;;;;;15.70;100.00;100096.53;4980352;28;20125;-75
2023/08/04 01:54:35;;;;;;;9.50;4.47;;;;;;;15.59;100.00;100093.47;4974496;28;20042;-75
2023/08/04 01:57:00;;;;;;;15.63;4.47;;;;;;;15.61;100.00;100096.75;4977529;28;20035;-75
2023/08/04 01:59:25;;;;;;;12.57;3.90;;;;;;;15.59;100.00;100093.47;4965567;28;20129;-76
2023/08/04 02:01:51;;;;;;;13.23;4.17;;;;;;;15.53;100.00;100093.47;4977227;28;20045;-76
2023/08/04 02:04:16;;;;;;;17.33;4.90;;;;;;;15.57;100.00;100102.78;4970173;28;20076;-78
2023/08/04 02:06:42;;;;;;;12.37;4.17;;;;;;;15.51;100.00;100099.06;4973816;28;20034;-78
2023/08/04 02:09:07;;;;;;;11.70;3.60;;;;;;;15.51;100.00;100104.44;4986399;28;20624;-77
2023/08/04 02:11:32;;;;;;;17.47;4.50;;;;;;;15.46;100.00;100092.66;4977802;28;20034;-75
2023/08/04 02:13:58;;;;;;;12.10;5.00;;;;;;;15.39;100.00;100106.13;4982089;28;20074;-75
2023/08/04 02:16:24;;;;;;;6.50;4.70;;;;;;;15.45;100.00;100104.44;4967386;28;20042;-76
2023/08/04 02:18:49;;;;;;;15.17;4.03;;;;;;;15.45;100.00;100093.69;4997698;28;20029;-76
2023/08/04 02:21:15;;;;;;;14.17;3.83;;;;;;;15.40;100.00;100086.25;4959147;28;20034;-76
2023/08/04 02:23:40;;;;;;;11.07;3.67;;;;;;;15.41;100.00;100096.00;4976256;28;20101;-79
2023/08/04 02:26:05;;;;;;;12.97;4.30;;;;;;;15.41;100.00;100104.06;4973646;28;20133;-78
2023/08/04 02:28:32;;;;;;;;;;;;;;;15.38;100.00;100109.84;4969122;28;20117;-76
2023/08/04 02:30:59;;;;;;;11.55;4.10;;;;;;;15.34;100.00;100103.25;4975058;28;20015;-78
2023/08/04 02:33:24;;;;;;;12.50;4.10;;;;;;;15.31;100.00;100103.66;4955940;28;20057;-75
2023/08/04 02:35:49;;;;;;;11.47;4.20;;;;;;;15.27;100.00;100102.44;4977531;28;20038;-75
2023/08/04 02:38:15;;;;;;;8.83;3.57;;;;;;;15.23;100.00;100102.00;4973077;28;20030;-76
2023/08/04 02:40:41;;;;;;;10.82;4.13;;;;;;;15.17;100.00;100106.38;4960544;28;20057;-75
2023/08/04 02:43:07;;;;;;;14.37;3.87;;;;;;;15.11;100.00;100099.13;4994784;28;20049;-76
2023/08/04 02:45:32;;;;;;;7.90;3.33;;;;;;;15.06;100.00;100100.78;4975206;28;20053;-75
2023/08/04 02:47:58;;;;;;;12.30;4.10;;;;;;;15.00;100.00;100099.75;4988856;28;20037;-77
2023/08/04 02:50:24;;;;;;;9.73;4.15;;;;;;;14.95;100.00;100104.91;4973197;28;20165;-76
2023/08/04 02:52:49;;;;;;;17.13;4.40;;;;;;;14.86;100.00;100114.22;4967800;28;20035;-76
2023/08/04 02:55:14;;;;;;;13.23;4.30;;;;;;;14.73;100.00;100123.94;4970673;28;20034;-75
2023/08/04 02:57:40;;;;;;;16.67;4.67;;;;;;;14.70;100.00;100135.09;4961108;28;20032;-77
2023/08/04 03:00:07;;;;;;;12.13;3.87;;;;;;;14.66;100.00;100159.88;4994713;28;20340;-79
2023/08/04 03:02:32;;;;;;;8.60;4.57;;;;;;;14.59;100.00;100159.88;4996661;28;20029;-75
2023/08/04 03:04:58;;;;;;;18.58;5.97;;;;;;;14.61;100.00;100168.56;4976601;28;20034;-76
2023/08/04 03:07:24;;;;;;;11.50;4.43;;;;;;;14.62;100.00;100164.81;4977880;28;20029;-76
2023/08/04 03:09:49;;;;;;;9.73;4.57;;;;;;;14.56;100.00;100176.38;4979863;28;20146;-74
2023/08/04 03:12:14;;;;;;;10.37;4.97;;;;;;;14.50;100.00;100180.66;4995136;28;20833;-75
2023/08/04 03:14:40;;;;;;;14.80;5.10;;;;;;;14.50;100.00;100195.97;4976763;28;20092;-76
2023/08/04 03:17:05;;;;;;;9.43;5.43;;;;;;;14.52;100.00;100204.66;4979640;28;20034;-78
2023/08/04 03:19:31;;;;;;;6.20;3.87;;;;;;;14.55;100.00;100212.31;4949822;28;20042;-77
2023/08/04 03:21:56;;;;;;;14.70;6.00;;;;;;;14.57;100.00;100215.66;4979438;28;20277;-76
2023/08/04 03:24:24;;;;;;;19.30;6.30;;;;;;;14.59;100.00;100210.91;4999341;28;20044;-75
2023/08/04 03:26:50;;;;;;;14.68;5.57;;;;;;;14.59;100.00;100218.97;4976881;28;20045;-77
2023/08/04 03:29:15;;;;;;;12.63;4.53;;;;;;;14.56;100.00;100211.28;4957505;28;20018;-78
2023/08/04 03:31:40;;;;;;;10.73;4.53;;;;;;;14.69;100.00;100219.41;4980079;28;20101;-78
2023/08/04 03:34:06;;;;;;;14.93;5.10;;;;;;;14.70;100.00;100231.81;4988917;28;20026;-75
2023/08/04 03:36:31;;;;;;;6.80;3.80;;;;;;;14.67;100.00;100231.38;4958535;28;20516;-75
2023/08/04 03:38:57;;;;;;;10.27;4.90;;;;;;;14.59;100.00;100240.44;4982815;28;20030;-75
2023/08/04 03:41:22;;;;;;;11.93;4.30;;;;;;;14.64;100.00;100240.69;4985143;28;20041;-75
2023/08/04 03:43:47;;;;;;;5.10;3.30;;;;;;;14.61;100.00;100238.41;4953337;28;20432;-75
2023/08/04 03:46:13;;;;;;;8.03;4.43;;;;;;;14.68;100.00;100241.09;4994762;28;20049;-75
2023/08/04 03:48:38;;;;;;;13.00;4.60;;;;;;;14.73;100.00;100241.34;4979972;28;20054;-75
2023/08/04 03:51:03;;;;;;;18.80;4.70;;;;;;;14.69;100.00;100230.16;4979779;28;20030;-75
2023/08/04 03:53:29;;;;;;;10.80;4.30;;;;;;;14.81;100.00;100249.19;4967084;28;20450;-76
2023/08/04 03:55:54;;;;;;;14.13;4.47;;;;;;;14.85;100.00;100244.25;4992335;28;20038;-74
2023/08/04 03:58:19;;;;;;;11.60;4.33;;;;;;;14.80;100.00;100225.19;4969367;28;20030;-75
2023/08/04 04:00:45;;;;;;;6.50;3.67;;;;;;;14.80;100.00;100230.56;4976734;28;20031;-79
2023/08/04 04:03:10;;;;;;;14.17;4.17;;;;;;;14.83;100.00;100225.63;4978915;28;20090;-78
2023/08/04 04:05:36;;;;;;;10.37;3.83;;;;;;;14.85;100.00;100228.97;4957251;28;20117;-76
2023/08/04 04:08:04;;;;;;;9.37;3.60;;;;;;;14.85;100.00;100222.75;4975207;28;20487;-77
2023/08/04 04:10:30;;;;;;;12.38;4.40;;;;;;;14.83;100.00;100224.81;4977273;28;20034;-75
2023/08/04 04:12:55;;;;;;;10.30;3.50;;;;;;;14.78;100.00;100223.56;4951043;28;20392;-78
2023/08/04 04:15:20;;;;;;;11.60;4.10;;;;;;;14.87;100.00;100226.06;4969365;28;20136;-78
2023/08/04 04:17:46;;;;;;;14.43;4.43;;;;;;;14.83;100.00;100230.19;4978725;28;20026;-76
2023/08/04 04:20:11;;;;;;;9.67;4.17;;;;;;;14.86;100.00;100235.97;4972198;28;20083;-78
2023/08/04 04:22:36;;;;;;;10.60;3.70;;;;;;;14.84;100.00;100237.22;4993067;28;20116;-75
2023/08/04 04:25:02;;;;;;;9.20;3.50;;;;;;;14.91;100.00;100244.28;4965059;28;20062;-76
2023/08/04 04:27:28;;;;;;;9.00;3.38;;;;;;;14.82;100.00;100242.81;4967697;28;20038;-75
2023/08/04 04:29:53;;;;;;;9.13;3.87;;;;;;;14.92;100.00;100245.09;4986468;28;20391;-77
2023/08/04 04:32:18;;;;;;;13.00;3.97;;;;;;;14.95;100.00;100247.38;4980338;28;20033;-75
2023/08/04 04:34:44;;;;;;;8.53;4.53;;;;;;;14.91;100.00;100243.44;4981252;28;20026;-76
2023/08/04 04:37:09;;;;;;;9.07;5.27;;;;;;;14.96;100.00;100251.72;4973164;28;20778;-76
2023/08/04 04:39:34;;;;;;;7.40;3.13;;;;;;;15.05;100.00;100250.47;4998615;28;20053;-75
2023/08/04 04:42:00;;;;;;;7.00;3.23;;;;;;;15.03;100.00;100246.34;4979418;28;20509;-80
2023/08/04 04:44:25;;;;;;;11.30;3.30;;;;;;;15.04;100.00;100240.78;4988204;28;20045;-76
2023/08/04 04:46:51;;;;;;;7.77;3.57;;;;;;;14.90;100.00;100226.47;4987035;28;20034;-76
2023/08/04 04:49:16;;;;;;;22.10;3.97;;;;;;;15.00;100.00;100236.84;4990961;28;20044;-75
2023/08/04 04:51:42;;;;;;;8.43;3.67;;;;;;;14.92;100.00;100229.78;4976557;28;20025;-76
2023/08/04 04:54:08;;;;;;;11.15;3.17;;;;;;;15.06;100.00;100235.22;4969693;28;20030;-75
2023/08/04 04:56:33;;;;;;;4.73;3.03;;;;;;;15.14;100.00;100235.81;4991999;28;20029;-76
2023/08/04 04:58:58;;;;;;;11.47;3.10;;;;;;;15.26;100.00;100236.03;4997908;28;20038;-75
2023/08/04 05:01:24;;;;;;;9.20;3.07;;;;;;;15.24;100.00;100242.66;4988532;28;20534;-76
2023/08/04 05:03:49;;;;;;;8.77;3.20;;;;;;;15.26;100.00;100245.97;4975003;28;20037;-76
2023/08/04 05:06:14;;;;;;;14.90;3.80;;;;;;;15.37;100.00;100248.06;4991036;28;20398;-75
2023/08/04 05:08:40;;;;;;;15.87;3.83;;;;;;;15.41;100.00;100257.38;4984348;28;20038;-78
2023/08/04 05:11:05;;;;;;;20.67;3.50;;;;;;;15.46;100.00;100264.84;4987903;28;20066;-78
2023/08/04 05:13:30;;;;;;;8.60;2.90;;;;;;;15.39;100.00;100256.75;4993322;28;20072;-77
2023/08/04 05:15:56;;;;;;;20.83;3.30;;;;;;;15.45;100.00;100260.47;4974854;28;20089;-77
2023/08/04 05:18:21;;;;;;;10.07;3.40;;;;;;;15.42;100.00;100261.72;4999918;28;20065;-75
2023/08/04 05:20:47;;;;;;;11.40;3.90;;;;;;;15.43;100.00;100268.75;4989177;28;20044;-76
2023/08/04 05:23:13;;;;;;;9.75;3.58;;;;;;;15.50;100.00;100264.22;4991646;28;20121;-75
2023/08/04 05:25:39;;;;;;;;;;;;;;;15.54;100.00;100275.38;4989167;28;20466;-75
2023/08/04 05:28:21;;;;;;;;;;;;;;;15.47;100.00;100272.69;4995420;28;20028;-75
2023/08/04 05:30:47;;;;;;;8.18;3.50;;;;;;;15.36;100.00;100262.56;4971814;28;20282;-75
2023/08/04 05:33:13;;;;;;;10.70;3.20;;;;;;;15.30;100.00;100266.06;4977032;28;20040;-75
2023/08/04 05:35:38;;;;;;;7.33;3.60;;;;;;;15.37;100.00;100277.66;4974531;28;20036;-76
2023/08/04 05:38:04;;;;;;;8.05;3.13;;;;;;;15.49;100.00;100292.13;4968071;28;20022;-77
2023/08/04 05:40:32;;;;;;;6.10;2.90;;;;;;;15.54;100.00;100294.22;4973836;28;20077;-75
2023/08/04 05:42:58;;;;;;;15.90;3.75;;;;;;;15.60;100.00;100291.53;5049898;23;20047;-84
2023/08/04 05:45:24;;;;;;;;;;;;;;;15.66;100.00;100297.09;5033249;28;20056;-85
2023/08/04 05:47:49;;;;;;;9.70;3.65;;;;;;;15.70;100.00;100298.34;5032599;28;20006;-83
2023/08/04 05:50:14;;;;;;;6.50;3.10;;;;;;;15.79;100.00;100299.84;5025313;28;20123;-84
2023/08/04 05:52:40;;;;;;;6.57;2.97;;;;;;;15.85;100.00;100296.34;5040540;28;20028;-85
2023/08/04 05:55:05;;;;;;;8.67;3.60;;;;;;;15.83;100.00;100287.63;5042355;28;20573;-83
2023/08/04 05:57:31;;;;;;;5.95;2.70;;;;;;;15.83;100.00;100280.38;5034516;28;20028;-84
2023/08/04 05:59:56;;;;;;;7.97;2.50;;;;;;;15.95;100.00;100275.19;5053934;28;20041;-85
2023/08/04 06:02:21;;;;;;;8.57;3.03;;;;;;;15.99;100.00;100268.34;5026104;28;20074;-85
2023/08/04 06:04:47;;;;;;;10.90;2.73;;;;;;;15.97;100.00;100262.34;5052274;28;20028;-85
2023/08/04 06:07:12;;;;;;;16.00;3.00;;;;;;;16.11;100.00;100275.75;5035463;28;20052;-85
2023/08/04 06:09:37;;;;;;;6.20;2.57;;;;;;;16.34;100.00;100270.75;5041710;28;20394;-85
2023/08/04 06:12:03;;;;;;;14.03;3.13;;;;;;;16.58;100.00;100260.31;5007837;28;20047;-86
2023/08/04 06:14:29;;;;;;;9.27;3.08;;;;;;;16.90;100.00;100249.59;5033310;28;20025;-84
2023/08/04 06:16:54;;;;;;;7.23;2.67;;;;;;;16.84;100.00;100206.28;5034568;28;20025;-85
2023/08/04 06:19:20;;;;;;;6.63;2.47;;;;;;;16.88;100.00;100196.72;5025138;28;20284;-84
2023/08/04 06:21:45;;;;;;;4.15;2.40;;;;;;;17.00;100.00;100213.03;5033164;28;20052;-84
2023/08/04 06:24:25;;;;;;;5.80;2.27;;;;;;;17.09;100.00;100186.63;5040273;28;20034;-85
2023/08/04 06:26:50;;;;;;;6.20;2.28;;;;;;;16.93;100.00;100160.19;5039188;28;20135;-85
2023/08/04 06:29:15;;;;;;;8.13;2.30;;;;;;;16.97;100.00;100156.00;5031854;28;20104;-85
2023/08/04 06:31:41;;;;;;;6.03;2.20;;;;;;;17.07;100.00;100167.16;5033209;28;20064;-85
2023/08/04 06:34:06;;;;;;;8.47;2.47;;;;;;;17.32;100.00;100175.22;5036105;28;20021;-86
2023/08/04 06:36:31;;;;;;;6.33;2.23;;;;;;;17.37;100.00;100143.03;5021714;28;20479;-85
2023/08/04 06:38:57;;;;;;;5.00;1.83;;;;;;;17.17;100.00;100135.13;5018659;28;20095;-86
2023/08/04 06:41:23;;;;;;;5.20;2.07;;;;;;;17.38;100.00;100141.16;5036938;28;20114;-85
2023/08/04 06:43:48;;;;;;;7.50;2.22;;;;;;;17.67;100.00;100166.59;5030349;28;20028;-86
2023/08/04 06:46:13;;;;;;;8.03;2.07;;;;;;;17.54;100.00;100112.78;5036850;28;20129;-85
2023/08/04 06:48:38;;;;;;;6.10;1.97;;;;;;;17.73;100.00;100115.25;5037689;28;20071;-86
2023/08/04 06:51:04;;;;;;;5.83;2.07;;;;;;;17.89;100.00;100119.25;5068686;22;20045;-75
2023/08/04 06:53:29;;;;;;;7.10;1.70;;;;;;;17.93;100.00;100106.13;5023946;28;20025;-76
2023/08/04 06:55:55;;;;;;;11.43;2.33;;;;;;;17.88;100.00;100098.69;5035672;28;20039;-76
2023/08/04 06:58:20;;;;;;;8.63;2.23;;;;;;;18.97;100.00;100162.72;5028613;28;20811;-76
2023/08/04 07:00:45;;;;;;;8.10;2.13;;;;;;;20.39;100.00;100036.06;5037257;28;20037;-76
2023/08/04 07:03:12;;;;;;;4.53;2.27;;;;;;;21.34;100.00;99844.25;5037865;28;20021;-77
2023/08/04 07:05:38;;;;;;;7.50;2.67;;;;;;;21.91;100.00;99622.81;5023799;28;20064;-76
2023/08/04 07:08:03;;;;;;;7.77;1.80;;;;;;;22.18;100.00;99500.34;5044188;28;20469;-76
2023/08/04 07:10:29;;;;;;;6.80;1.67;;;;;;;22.83;100.00;99524.34;5005164;28;20036;-76
2023/08/04 07:12:54;;;;;;;8.87;1.87;;;;;;;23.03;100.00;99306.63;5041506;28;20057;-76
2023/08/04 07:15:19;;;;;;;9.53;1.50;;;;;;;23.14;100.00;99128.53;5024513;28;20056;-77
2023/08/04 07:17:45;;;;;;;9.73;1.63;;;;;;;21.57;100.00;98997.84;5035824;28;20283;-77
2023/08/04 07:20:10;;;;;;;5.23;1.73;;;;;;;20.99;100.00;99361.75;5023254;28;20283;-76
2023/08/04 07:22:37;;;;;;;6.32;1.98;;;;;;;19.96;100.00;99258.13;5025918;28;20047;-76
2023/08/04 07:25:02;;;;;;;7.65;1.92;;;;;;;19.48;100.00;99494.53;5008833;28;20037;-76
2023/08/04 07:27:28;;;;;;;7.20;2.00;;;;;;;18.82;100.00;99600.69;5021814;28;20025;-75
2023/08/04 07:29:53;;;;;;;8.73;2.10;;;;;;;18.80;100.00;99738.03;5020532;28;20044;-76
2023/08/04 07:32:19;;;;;;;4.37;1.67;;;;;;;18.42;100.00;99744.81;5029162;28;20021;-76
2023/08/04 07:34:44;;;;;;;6.87;1.70;;;;;;;18.36;100.00;99861.97;5044993;28;20044;-75
2023/08/04 07:37:09;;;;;;;5.17;1.67;;;;;;;18.23;100.00;99911.63;5043933;28;20017;-75
2023/08/04 07:39:35;;;;;;;9.68;1.60;;;;;;;18.27;100.00;99998.47;5039479;28;20028;-75
2023/08/04 07:42:00;;;;;;;4.37;1.63;;;;;;;18.08;100.00;100105.75;5029461;28;20546;-75
2023/08/04 07:44:25;;;;;;;9.27;2.00;;;;;;;18.00;100.00;100079.84;5025155;28;20109;-75
2023/08/04 07:49:47;;;;;;;6.15;2.58;;;;;;;18.13;100.00;100179.63;4987641;28;20528;-89
2023/08/04 07:52:12;;;;;;;3.97;1.70;;;;;;;18.06;100.00;100127.56;4971746;28;20035;-89
2023/08/04 07:54:38;;;;;;;8.10;1.47;;;;;;;18.22;100.00;100120.72;4954250;28;20027;-89
2023/08/04 07:57:03;;;;;;;6.07;2.03;;;;;;;18.09;100.00;100129.81;4964681;28;20050;-89
2023/08/04 07:59:29;;;;;;;5.43;2.50;;;;;;;18.01;100.00;100092.31;4962195;28;20687;-88
2023/08/04 08:01:54;;;;;;;4.23;1.37;;;;;;;17.98;100.00;100065.78;4960947;28;20031;-88
2023/08/04 08:04:19;;;;;;;8.33;2.43;;;;;;;18.00;100.00;99993.44;4954650;28;20378;-88
2023/08/04 08:06:45;;;;;;;4.87;2.17;;;;;;;17.97;100.00;100050.59;4974557;28;20437;-89
2023/08/04 08:09:12;;;;;;;9.03;3.00;;;;;;;18.22;100.00;100038.84;4953912;28;20062;-88
2023/08/04 08:11:38;;;;;;;6.53;1.90;;;;;;;18.35;100.00;100011.63;4960691;28;20175;-88
2023/08/04 08:14:03;;;;;;;3.85;1.42;;;;;;;18.44;100.00;99983.19;4962887;28;20501;-88
2023/08/04 08:16:28;;;;;;;6.53;1.53;;;;;;;18.51;100.00;99907.41;4980964;28;20122;-88
2023/08/04 08:18:54;;;;;;;4.17;1.37;;;;;;;18.35;100.00;99984.59;4971695;28;20278;-88
2023/08/04 08:21:19;;;;;;;5.83;1.60;;;;;;;18.22;100.00;100020.75;4982407;28;20157;-88
2023/08/04 08:23:44;;;;;;;6.40;2.00;;;;;;;18.51;100.00;100048.78;4965472;28;20081;-88
2023/08/04 08:26:10;;;;;;;5.03;1.70;;;;;;;18.80;100.00;100105.78;4962493;28;20102;-88
2023/08/04 08:28:35;;;;;;;3.43;1.10;;;;;;;18.94;100.00;100049.56;4963053;28;20026;-88
2023/08/04 08:31:00;;;;;;;8.30;2.07;;;;;;;18.82;100.00;99952.22;4965543;28;20045;-88
2023/08/04 08:33:26;;;;;;;6.80;2.00;;;;;;;18.91;100.00;99896.72;4978105;28;20045;-88
2023/08/04 08:35:52;;;;;;;3.67;1.40;;;;;;;18.92;100.00;99852.41;4964910;28;20106;-88
2023/08/04 08:38:17;;;;;;;4.27;2.00;;;;;;;19.34;100.00;100001.00;4983161;28;20035;-88
2023/08/04 08:40:43;;;;;;;6.80;1.67;;;;;;;19.34;100.00;99862.97;4967764;28;20305;-87
2023/08/04 08:43:08;;;;;;;6.77;1.33;;;;;;;19.30;100.00;99844.75;4957193;28;20113;-88
2023/08/04 08:45:34;;;;;;;2.93;1.37;;;;;;;19.32;100.00;99746.00;4990756;28;20463;-88
2023/08/04 08:47:59;;;;;;;;;;;;;;;19.54;100.00;99867.91;4969055;28;20098;-88
2023/08/04 08:50:26;;;;;;;5.95;1.80;;;;;;;19.61;100.00;99781.94;4981141;28;19914;-88
2023/08/04 08:53:20;;;;;;;8.27;2.47;;;;;;;19.92;100.00;99890.81;4965242;28;20037;-87
2023/08/04 08:55:47;;;;;;;8.60;1.70;;;;;;;19.83;100.00;99713.56;4977036;28;20047;-87
2023/08/04 08:58:13;;;;;;;7.93;2.08;;;;;;;20.27;100.00;99783.25;4983213;28;20070;-87
2023/08/04 09:00:38;;;;;;;5.90;2.03;;;;;;;20.26;100.00;99453.72;4965608;28;20441;-87
2023/08/04 09:03:05;;;;;;;3.38;1.10;;;;;;;20.63;100.00;99606.44;4982908;28;20018;-87
2023/08/04 09:05:31;;;;;;;3.03;1.10;;;;;;;20.64;100.00;99580.94;4975851;28;20047;-87
2023/08/04 09:07:57;;;;;;;4.65;1.25;;;;;;;21.02;100.00;99516.66;4959053;28;20037;-86
2023/08/04 09:10:22;;;;;;;4.53;1.30;;;;;;;21.22;100.00;99390.34;4983657;28;20117;-88
2023/08/04 09:12:51;;;;;;;4.40;1.53;;;;;;;21.19;100.00;99214.44;4973186;28;20507;-87
2023/08/04 09:15:17;;;;;;;2.13;1.00;;;;;;;21.00;100.00;99230.44;4983550;28;20313;-88
2023/08/04 09:17:42;;;;;;;3.43;1.33;;;;;;;21.41;100.00;99358.94;4983442;28;20031;-89
2023/08/04 09:20:10;;;;;;;3.80;1.10;;;;;;;21.39;100.00;99442.50;4982277;28;20289;-88
2023/08/04 09:22:42;;;;;;;8.07;1.42;;;;;;;21.36;100.00;99230.50;4965750;28;20031;-89
2023/08/04 09:25:08;;;;;;;7.07;1.23;;;;;;;20.81;100.00;99065.50;4965673;28;20042;-89
2023/08/04 09:27:38;;;;;;;3.45;1.23;;;;;;;20.26;100.00;99066.22;4965333;28;20023;-88
2023/08/04 09:30:06;;;;;;;5.93;1.17;;;;;;;19.76;100.00;99145.09;4966132;28;20039;-89
2023/08/04 09:32:34;;;;;;;3.30;1.20;;;;;;;20.01;100.00;99465.94;4950334;28;20027;-89
2023/08/04 09:35:05;;;;;;;3.80;1.30;;;;;;;20.51;100.00;99529.84;4965197;28;20035;-88
2023/08/04 09:37:35;;;;;;;7.50;2.67;;;;;;;21.14;100.00;99500.22;4964163;28;20076;-88
2023/08/04 09:40:03;;;;;;;3.33;1.25;;;;;;;21.78;100.00;99370.69;4977617;28;20498;-90
2023/08/04 09:42:29;;;;;;;2.80;1.08;;;;;;;22.74;100.00;99467.78;4955569;28;20018;-89
2023/08/04 09:44:55;;;;;;;2.17;1.30;;;;;;;22.83;100.00;99230.50;4978513;28;20065;-88
2023/08/04 09:47:22;;;;;;;5.25;1.50;;;;;;;22.05;100.00;98987.28;4974598;28;20031;-88
2023/08/04 09:49:48;;;;;;;3.33;1.33;;;;;;;21.86;100.00;99131.88;4979204;28;20049;-88
2023/08/04 09:52:27;;;;;;;6.13;1.33;;;;;;;21.99;100.00;99130.50;4961407;28;20114;-87
2023/08/04 09:54:56;;;;;;;2.60;1.30;;;;;;;21.95;100.00;99487.28;4961449;28;20035;-89
2023/08/04 09:57:23;;;;;;;11.15;2.08;;;;;;;21.72;100.00;99144.44;4959981;28;21209;-89
2023/08/04 09:59:50;;;;;;;4.50;1.77;;;;;;;21.60;100.00;98959.28;4975322;28;20059;-89
2023/08/04 10:02:18;;;;;;;4.22;1.45;;;;;;;21.17;100.00;98893.75;4976203;28;20031;-88
2023/08/04 10:04:47;;;;;;;5.40;1.40;;;;;;;21.47;100.00;98982.41;4964439;28;20068;-89
2023/08/04 10:07:14;;;;;;;4.32;1.48;;;;;;;21.89;100.00;99049.84;4963248;28;20390;-89
2023/08/04 10:09:40;;;;;;;1.92;1.10;;;;;;;22.29;100.00;99145.91;4969866;28;20133;-89
2023/08/04 10:12:07;;;;;;;2.97;0.90;;;;;;;21.59;100.00;98627.22;4952277;28;20640;-88
2023/08/04 10:14:33;;;;;;;2.53;1.30;;;;;;;21.84;100.00;98903.19;4980592;28;21219;-89
2023/08/04 10:16:59;;;;;;;4.72;2.20;;;;;;;22.07;100.00;98952.50;4967680;28;20118;-89
2023/08/04 10:19:27;;;;;;;6.13;1.45;;;;;;;21.69;100.00;99185.72;4972119;28;20071;-87
2023/08/04 10:21:52;;;;;;;2.25;1.00;;;;;;;20.82;100.00;98553.78;4953134;28;20049;-90
2023/08/04 10:24:20;;;;;;;6.90;1.50;;;;;;;20.77;100.00;99316.63;4952448;28;20426;-90
2023/08/04 10:26:51;;;;;;;3.30;1.35;;;;;;;20.09;100.00;99071.81;4960539;28;20033;-89
2023/08/04 10:29:18;;;;;;;4.53;1.65;;;;;;;19.94;100.00;99341.53;4962432;28;20056;-89
2023/08/04 10:31:53;;;;;;;2.72;1.55;;;;;;;19.63;100.00;99302.53;4963199;28;20023;-91
2023/08/04 10:34:31;;;;;;;4.82;1.70;;;;;;;19.23;100.00;99325.41;4967054;28;20451;-88
2023/08/04 10:37:11;;;;;;;3.58;1.67;;;;;;;19.15;100.00;99566.59;4974000;28;20040;-88
2023/08/04 10:39:37;;;;;;;3.30;1.70;;;;;;;19.28;100.00;99663.69;4960818;28;20039;-90
2023/08/04 10:42:09;;;;;;;6.55;3.03;;;;;;;19.24;100.00;99678.75;4961656;28;20026;-90
2023/08/04 10:44:54;;;;;;;6.88;1.75;;;;;;;19.26;100.00;99851.69;4950414;28;20061;-89
2023/08/04 10:47:46;;;;;;;13.88;2.95;;;;;;;19.34;100.00;99937.94;4952032;28;20031;-89
2023/08/04 10:50:15;;;;;;;10.73;2.30;;;;;;;19.63;100.00;100103.91;4957611;28;20515;-88
2023/08/04 10:52:41;;;;;;;6.03;1.77;;;;;;;19.74;100.00;100038.13;4946898;28;20047;-90
2023/08/04 10:55:08;;;;;;;;;;;;;;;20.04;100.00;100053.31;4975424;28;20077;-90
2023/08/04 10:57:35;;;;;;;5.97;1.90;;;;;;;19.64;100.00;99818.53;4951433;28;20004;-89
2023/08/04 11:00:02;;;;;;;6.82;2.20;;;;;;;19.40;100.00;99928.81;4943550;28;20036;-88
2023/08/04 11:02:28;;;;;;;4.78;1.55;;;;;;;19.03;100.00;100064.41;4958304;28;20110;-88
2023/08/04 11:04:54;;;;;;;5.43;1.40;;;;;;;18.62;100.00;100149.09;4984324;28;20126;-88
2023/08/04 11:07:22;;;;;;;7.50;1.88;;;;;;;18.32;100.00;100322.84;4970947;28;20026;-88
2023/08/04 11:09:49;;;;;;;5.97;1.85;;;;;;;18.53;100.00;100533.25;4959145;28;20058;-88
2023/08/04 11:12:15;;;;;;;9.48;2.05;;;;;;;18.32;100.00;100490.38;4962693;28;20019;-88
2023/08/04 11:14:41;;;;;;;4.55;1.58;;;;;;;18.42;100.00;100385.28;4978332;28;20035;-88
2023/08/04 11:17:14;;;;;;;;;;;;;;;18.63;100.00;100375.94;4962631;28;20026;-88